Time;durP1;ratioP1;P1;durP2;ratioP2;P2;SDS_P1;SDS_P2;PMS_P1;PMS_P2;Temp;Humidity;BMP_temperature;BMP_pressure;BME280_temperature;BME280_humidity;BME280_pressure;Samples;Min_cycle;Max_cycle;Signal;HPM_P1;HPM_P2
2023/06/02 00:02:35;;;;;;;8.10;4.68;;;14.70;1.00;;;;;;6183473;23;20025;-89
2023/06/02 00:05:26;;;;;;;9.50;4.43;;;14.70;1.00;;;;;;6187038;23;20199;-88
2023/06/02 00:08:16;;;;;;;8.10;5.00;;;14.60;1.00;;;;;;6184371;23;20029;-86
2023/06/02 00:11:05;;;;;;;11.57;5.00;;;14.50;1.00;;;;;;6185360;23;20025;-87
2023/06/02 00:13:53;;;;;;;7.53;3.97;;;14.50;1.00;;;;;;6185310;23;20033;-85
2023/06/02 00:16:45;;;;;;;9.90;4.78;;;14.50;1.00;;;;;;6185072;23;20025;-86
2023/06/02 00:19:35;;;;;;;6.87;4.60;;;14.60;1.00;;;;;;6163925;23;20084;-87
2023/06/02 00:22:29;;;;;;;8.85;4.18;;;14.50;1.00;;;;;;6163760;23;20021;-87
2023/06/02 00:25:20;;;;;;;11.15;4.85;;;14.50;1.00;;;;;;6186089;23;20031;-86
2023/06/02 00:28:07;;;;;;;6.80;4.28;;;14.50;1.00;;;;;;6185747;23;20035;-86
2023/06/02 00:30:55;;;;;;;13.45;4.60;;;14.40;1.00;;;;;;6185101;23;20136;-86
2023/06/02 00:33:42;;;;;;;10.15;4.90;;;14.40;1.00;;;;;;6184949;23;20025;-87
2023/06/02 00:36:30;;;;;;;7.70;4.75;;;14.40;1.00;;;;;;6188214;23;20267;-86
2023/06/02 00:39:17;;;;;;;8.80;4.50;;;14.30;1.00;;;;;;6170029;23;20397;-87
2023/06/02 00:42:05;;;;;;;7.70;5.03;;;14.30;1.00;;;;;;6183593;23;20048;-86
2023/06/02 00:44:54;;;;;;;8.90;4.57;;;14.20;1.00;;;;;;6185238;23;20032;-86
2023/06/02 00:47:41;;;;;;;12.00;4.40;;;14.20;1.00;;;;;;6184253;23;20408;-86
2023/06/02 00:50:30;;;;;;;10.07;4.72;;;14.20;1.00;;;;;;6164799;23;20039;-86
2023/06/02 00:53:18;;;;;;;9.63;4.95;;;14.10;1.00;;;;;;6184661;23;20037;-87
2023/06/02 00:56:06;;;;;;;7.95;5.20;;;14.20;1.00;;;;;;6187022;23;20029;-87
2023/06/02 00:58:54;;;;;;;14.43;4.85;;;14.20;1.00;;;;;;6162033;23;20451;-90
2023/06/02 01:01:45;;;;;;;9.75;4.75;;;14.10;1.00;;;;;;6164409;23;20040;-85
2023/06/02 01:04:35;;;;;;;7.05;4.80;;;14.10;1.00;;;;;;6185049;23;20028;-87
2023/06/02 01:07:25;;;;;;;11.60;5.22;;;14.10;1.00;;;;;;6184417;23;20029;-88
2023/06/02 01:10:16;;;;;;;11.32;4.82;;;14.10;1.00;;;;;;6184571;23;20092;-87
2023/06/02 01:13:04;;;;;;;8.13;4.35;;;14.00;1.00;;;;;;6183491;23;20427;-86
2023/06/02 01:16:00;;;;;;;5.70;4.32;;;13.90;1.00;;;;;;6184176;23;20032;-87
2023/06/02 01:18:51;;;;;;;7.88;4.70;;;13.80;1.00;;;;;;6142060;23;20036;-89
2023/06/02 01:21:59;;;;;;;9.93;4.75;;;13.80;1.00;;;;;;6183948;23;20281;-87
2023/06/02 01:24:48;;;;;;;7.20;4.78;;;13.70;1.00;;;;;;6142688;23;20021;-88
2023/06/02 01:27:35;;;;;;;9.48;4.97;;;13.60;1.00;;;;;;6183450;23;20032;-88
2023/06/02 01:30:24;;;;;;;14.65;6.18;;;13.60;1.00;;;;;;6185691;23;20021;-86
2023/06/02 01:33:22;;;;;;;9.07;5.53;;;13.60;1.00;;;;;;6184175;23;20413;-88
2023/06/02 01:36:10;;;;;;;8.43;5.25;;;13.50;1.00;;;;;;6186634;23;20021;-87
2023/06/02 01:39:00;;;;;;;9.35;4.50;;;13.50;1.00;;;;;;6185955;23;20391;-87
2023/06/02 01:41:49;;;;;;;10.18;4.65;;;13.60;1.00;;;;;;6184351;23;20025;-87
2023/06/02 01:44:38;;;;;;;11.55;5.22;;;13.60;1.00;;;;;;6184249;23;20420;-86
2023/06/02 01:47:26;;;;;;;8.95;4.90;;;13.50;1.00;;;;;;6182698;23;20020;-87
2023/06/02 01:50:18;;;;;;;9.18;4.97;;;13.60;1.00;;;;;;6162973;23;20608;-87
2023/06/02 01:53:05;;;;;;;9.68;4.70;;;13.60;1.00;;;;;;6162332;23;20025;-88
2023/06/02 01:55:54;;;;;;;11.85;4.75;;;13.60;1.00;;;;;;6183712;23;20467;-88
2023/06/02 01:58:42;;;;;;;13.13;5.32;;;13.40;1.00;;;;;;6185519;23;20040;-87
2023/06/02 02:01:31;;;;;;;10.00;5.55;;;13.40;1.00;;;;;;6183017;23;20032;-89
2023/06/02 02:04:18;;;;;;;8.35;5.35;;;13.30;1.00;;;;;;6163125;23;20025;-87
2023/06/02 02:07:08;;;;;;;11.38;5.28;;;13.20;5.20;;;;;;6186121;23;20167;-88
2023/06/02 02:09:56;;;;;;;8.27;5.53;;;13.20;3.70;;;;;;6187681;23;20321;-89
2023/06/02 02:12:47;;;;;;;8.93;4.93;;;13.10;7.70;;;;;;6166328;23;20104;-88
2023/06/02 02:15:38;;;;;;;8.18;4.80;;;13.10;19.20;;;;;;6187263;23;20316;-86
2023/06/02 02:18:27;;;;;;;9.35;5.30;;;13.10;25.20;;;;;;6188704;23;20132;-88
2023/06/02 02:21:14;;;;;;;9.02;5.75;;;13.00;31.70;;;;;;6164685;23;20032;-88
2023/06/02 02:24:01;;;;;;;7.78;5.55;;;12.90;34.20;;;;;;6162355;23;20029;-88
2023/06/02 02:26:49;;;;;;;8.02;4.32;;;12.90;34.60;;;;;;6162983;23;20040;-87
2023/06/02 02:29:38;;;;;;;9.77;5.28;;;12.80;41.90;;;;;;6184855;23;20444;-87
2023/06/02 02:32:26;;;;;;;8.55;4.82;;;12.60;48.90;;;;;;6186187;23;20043;-87
2023/06/02 02:35:17;;;;;;;13.45;5.82;;;12.60;62.80;;;;;;6184780;23;20100;-87
2023/06/02 02:38:05;;;;;;;9.63;5.78;;;12.50;90.30;;;;;;6184302;23;20127;-87
2023/06/02 02:40:52;;;;;;;7.60;5.50;;;12.50;90.60;;;;;;6185142;23;20041;-87
2023/06/02 02:43:39;;;;;;;10.45;6.43;;;12.50;96.80;;;;;;6183094;23;20055;-85
2023/06/02 02:46:28;;;;;;;9.27;5.28;;;12.30;99.90;;;;;;6182494;23;20036;-86
2023/06/02 02:49:15;;;;;;;9.90;5.28;;;12.30;99.90;;;;;;6190178;23;20025;-86
2023/06/02 02:52:02;;;;;;;9.15;5.57;;;12.20;99.90;;;;;;6188275;23;20131;-85
2023/06/02 02:54:50;;;;;;;10.55;5.75;;;12.10;99.90;;;;;;6183099;23;20029;-85
2023/06/02 02:57:37;;;;;;;10.20;5.82;;;12.00;99.90;;;;;;6185612;23;20035;-89
2023/06/02 03:00:25;;;;;;;9.32;5.18;;;12.00;99.90;;;;;;6184316;23;20033;-87
2023/06/02 03:03:12;;;;;;;10.65;5.85;;;11.90;99.90;;;;;;6187529;23;20029;-87
2023/06/02 03:06:01;;;;;;;12.10;6.53;;;11.90;99.90;;;;;;6186901;23;20021;-87
2023/06/02 03:08:49;;;;;;;12.57;6.22;;;11.90;99.90;;;;;;6183124;23;20024;-86
2023/06/02 03:11:37;;;;;;;11.48;5.90;;;11.90;99.90;;;;;;6163390;23;20029;-85
2023/06/02 03:14:27;;;;;;;10.30;6.18;;;12.00;99.90;;;;;;6182187;23;20056;-84
2023/06/02 03:17:17;;;;;;;14.02;6.35;;;12.00;99.90;;;;;;6182799;23;20048;-88
2023/06/02 03:20:09;;;;;;;11.55;6.22;;;12.10;99.90;;;;;;6183216;23;20048;-86
2023/06/02 03:22:58;;;;;;;8.57;5.95;;;12.00;99.90;;;;;;6184338;23;20044;-88
2023/06/02 03:25:46;;;;;;;13.07;6.97;;;11.90;99.90;;;;;;6184295;23;20025;-88
2023/06/02 03:28:34;;;;;;;10.98;6.68;;;11.90;99.90;;;;;;6163397;23;20025;-86
2023/06/02 03:31:25;;;;;;;14.55;6.85;;;11.90;99.90;;;;;;6183145;23;20029;-86
2023/06/02 03:34:13;;;;;;;11.32;7.00;;;11.80;99.90;;;;;;6184246;23;20416;-86
2023/06/02 03:37:02;;;;;;;11.00;7.18;;;11.80;99.90;;;;;;6185830;23;20043;-85
2023/06/02 03:39:50;;;;;;;11.65;6.65;;;11.70;99.90;;;;;;6185292;23;20269;-86
2023/06/02 03:42:37;;;;;;;12.50;7.00;;;11.60;99.90;;;;;;6185328;23;20029;-89
2023/06/02 03:45:24;;;;;;;11.80;7.20;;;11.70;99.90;;;;;;6184240;23;20044;-89
2023/06/02 03:48:12;;;;;;;13.55;7.20;;;11.80;99.90;;;;;;6163619;23;20031;-89
2023/06/02 03:50:59;;;;;;;11.13;6.70;;;11.90;99.90;;;;;;6187578;23;20655;-87
2023/06/02 03:53:48;;;;;;;14.13;6.80;;;11.90;99.90;;;;;;6185498;23;20029;-90
2023/06/02 03:56:36;;;;;;;13.05;7.00;;;12.00;99.90;;;;;;6185915;23;20085;-89
2023/06/02 03:59:23;;;;;;;12.18;7.22;;;12.00;99.90;;;;;;6165598;23;20032;-90
2023/06/02 04:06:22;;;;;;;11.65;6.55;;;12.00;99.90;;;;;;6185710;23;20017;-91
2023/06/02 04:09:13;;;;;;;9.98;7.18;;;12.00;99.90;;;;;;6163815;23;20114;-89
2023/06/02 04:12:03;;;;;;;12.52;7.35;;;12.00;99.90;;;;;;6186910;23;20467;-90
2023/06/02 04:14:51;;;;;;;12.57;6.93;;;12.10;99.90;;;;;;6164557;23;20043;-91
2023/06/02 04:17:38;;;;;;;14.10;7.53;;;12.10;99.90;;;;;;6188339;23;20048;-90
2023/06/02 04:20:25;;;;;;;13.50;7.78;;;12.10;99.90;;;;;;6171740;23;20381;-88
2023/06/02 04:23:13;;;;;;;15.30;7.63;;;12.10;99.90;;;;;;6186237;23;20029;-90
2023/06/02 04:28:38;;;;;;;12.18;7.85;;;12.10;99.90;;;;;;6147302;23;20043;-86
2023/06/02 04:31:43;;;;;;;14.40;7.10;;;12.10;99.90;;;;;;6179063;23;20050;-88
2023/06/02 04:34:33;;;;;;;15.20;8.07;;;12.10;99.90;;;;;;6179166;23;20047;-86
2023/06/02 04:37:38;;;;;;;11.95;6.95;;;12.10;99.90;;;;;;6181606;23;20029;-91
2023/06/02 04:40:25;;;;;;;19.67;7.38;;;12.10;99.90;;;;;;6186220;23;20041;-90
2023/06/02 04:43:14;;;;;;;17.70;7.35;;;12.10;99.90;;;;;;6189720;23;20036;-93
2023/06/02 04:46:01;;;;;;;12.13;8.07;;;12.10;99.90;;;;;;6193524;23;20040;-86
2023/06/02 04:48:49;;;;;;;17.02;7.90;;;12.30;99.90;;;;;;6193845;23;20009;-91
2023/06/02 04:51:39;;;;;;;12.43;8.05;;;12.30;99.90;;;;;;6199637;23;20029;-89
2023/06/02 04:54:26;;;;;;;16.05;8.13;;;12.30;99.90;;;;;;6199758;23;20051;-90
2023/06/02 04:57:15;;;;;;;14.98;7.82;;;12.40;99.90;;;;;;6193004;23;20144;-91
2023/06/02 05:00:06;;;;;;;13.60;7.65;;;12.50;99.90;;;;;;6187404;23;20029;-92
2023/06/02 05:02:53;;;;;;;12.60;8.52;;;12.50;99.90;;;;;;6185948;23;20079;-92
2023/06/02 05:05:40;;;;;;;16.40;7.88;;;12.50;99.90;;;;;;6186636;23;20029;-90
2023/06/02 05:08:28;;;;;;;16.90;8.65;;;12.60;99.90;;;;;;6197365;23;20025;-91
2023/06/02 05:11:15;;;;;;;13.23;7.63;;;12.60;99.90;;;;;;6187068;23;20268;-91
2023/06/02 05:14:07;;;;;;;15.68;8.63;;;12.70;99.90;;;;;;6184654;23;20095;-91
2023/06/02 05:16:59;;;;;;;14.45;8.65;;;12.80;99.90;;;;;;6189814;23;20036;-92
2023/06/02 05:19:47;;;;;;;15.27;8.23;;;12.90;99.90;;;;;;6192113;23;20025;-91
2023/06/02 05:22:35;;;;;;;14.80;9.23;;;12.90;99.90;;;;;;6185334;23;20028;-89
2023/06/02 05:25:23;;;;;;;15.70;9.05;;;12.90;99.90;;;;;;6184801;23;20072;-91
2023/06/02 05:28:12;;;;;;;15.55;9.02;;;13.00;99.90;;;;;;6160562;23;20036;-87
2023/06/02 05:31:02;;;;;;;13.52;8.32;;;13.00;99.90;;;;;;6157289;23;20031;-87
2023/06/02 05:33:51;;;;;;;14.13;8.47;;;13.10;99.90;;;;;;6152924;23;20036;-92
2023/06/02 05:36:40;;;;;;;13.32;8.57;;;13.00;99.90;;;;;;6171707;23;20025;-92
2023/06/02 05:39:58;;;;;;;;;;;;;;;;;;;;;
2023/06/02 05:43:05;;;;;;;14.20;9.15;;;13.10;99.90;;;;;;6117579;23;20513;-92
2023/06/02 05:50:08;;;;;;;16.00;9.52;;;13.20;99.90;;;;;;6067623;23;20049;-92
2023/06/02 05:52:57;;;;;;;19.00;9.75;;;13.40;99.90;;;;;;6120647;23;20097;-89
2023/06/02 05:55:47;;;;;;;15.82;9.20;;;13.40;99.90;;;;;;6120806;23;20337;-92
2023/06/02 05:58:38;;;;;;;15.05;9.00;;;13.40;99.90;;;;;;6122264;23;20037;-91
2023/06/02 06:01:28;;;;;;;14.10;9.30;;;13.50;99.90;;;;;;6125700;23;20211;-88
2023/06/02 06:04:27;;;;;;;16.08;9.20;;;13.60;99.90;;;;;;6136206;23;20036;-89
2023/06/02 06:07:41;;;;;;;12.70;8.93;;;13.60;99.90;;;;;;6103929;23;20120;-89
2023/06/02 06:10:42;;;;;;;;;;;;;;;;;;;;;
2023/06/02 06:13:41;;;;;;;15.25;8.82;;;13.80;99.90;;;;;;6160019;23;20132;-90
2023/06/02 06:16:39;;;;;;;19.25;9.82;;;13.90;99.90;;;;;;6182385;23;20029;-89
2023/06/02 06:19:31;;;;;;;19.92;9.85;;;14.00;99.90;;;;;;6177130;23;20033;-90
2023/06/02 06:22:19;;;;;;;15.35;8.75;;;14.10;99.90;;;;;;6181753;23;20036;-86
2023/06/02 06:25:07;;;;;;;14.43;9.05;;;14.10;99.90;;;;;;6182568;23;20028;-87
2023/06/02 06:27:55;;;;;;;16.83;9.43;;;14.20;99.90;;;;;;6176470;23;20040;-86
2023/06/02 06:30:42;;;;;;;18.15;9.75;;;14.20;99.90;;;;;;6183801;23;20025;-90
2023/06/02 06:33:31;;;;;;;16.92;9.38;;;14.20;99.90;;;;;;6023480;23;3732499;-89
2023/06/02 06:36:21;;;;;;;16.15;9.30;;;14.30;99.90;;;;;;6170090;23;20028;-90
2023/06/02 06:39:08;;;;;;;17.85;10.50;;;14.40;99.90;;;;;;6174881;23;20029;-87
2023/06/02 06:41:56;;;;;;;16.00;9.05;;;14.70;99.90;;;;;;6182080;23;20405;-90
2023/06/02 06:44:45;;;;;;;16.83;9.43;;;14.90;99.90;;;;;;6182898;23;20035;-93
2023/06/02 06:47:37;;;;;;;14.30;9.05;;;15.10;99.90;;;;;;6182885;23;20035;-91
2023/06/02 06:50:24;;;;;;;16.40;9.18;;;15.20;99.90;;;;;;6183651;23;20017;-91
2023/06/02 06:53:12;;;;;;;13.18;9.38;;;15.40;99.90;;;;;;6183369;23;20087;-89
2023/06/02 06:56:00;;;;;;;17.98;9.40;;;15.60;99.90;;;;;;6181736;23;20434;-89
2023/06/02 06:58:53;;;;;;;12.75;8.60;;;15.80;99.90;;;;;;6185206;23;20033;-91
2023/06/02 07:01:56;;;;;;;13.95;8.38;;;16.10;99.90;;;;;;6182413;23;20424;-89
2023/06/02 07:04:51;;;;;;;14.55;9.40;;;16.50;99.90;;;;;;6185625;23;20056;-89
2023/06/02 07:08:33;;;;;;;16.20;9.18;;;16.70;99.90;;;;;;6182040;23;20025;-92
2023/06/02 07:11:40;;;;;;;;;;;;;;;;;;;;;
2023/06/02 07:14:38;;;;;;;13.18;8.70;;;17.50;90.90;;;;;;6186740;23;20101;-87
2023/06/02 07:17:54;;;;;;;14.13;8.57;;;18.10;75.60;;;;;;6188009;23;20095;-91
2023/06/02 07:21:18;;;;;;;;;;;;;;;;;;;;;
2023/06/02 07:24:39;;;;;;;;;;;;;;;;;;;;;
2023/06/02 07:32:02;;;;;;;10.98;7.32;;;19.70;1.00;;;;;;6147672;23;20028;-90
2023/06/02 07:35:22;;;;;;;;;;;;;;;;;;;;;
2023/06/02 07:38:34;;;;;;;12.50;7.78;;;20.20;1.00;;;;;;6156618;23;20048;-91
2023/06/02 07:41:27;;;;;;;13.73;7.47;;;20.40;1.00;;;;;;6154001;23;20029;-91
2023/06/02 07:45:02;;;;;;;10.30;7.40;;;21.30;1.00;;;;;;6154404;23;20180;-95
2023/06/02 07:48:13;;;;;;;11.35;7.65;;;21.20;1.00;;;;;;6045352;23;20030;-92
2023/06/02 07:51:23;;;;;;;10.75;7.38;;;21.40;1.00;;;;;;6097743;23;20040;-90
2023/06/02 07:55:05;;;;;;;11.98;6.65;;;21.70;1.00;;;;;;6080092;23;20049;-88
2023/06/02 07:57:51;;;;;;;11.63;7.17;;;22.40;1.00;;;;;;6109258;23;20026;-89
2023/06/02 08:00:45;;;;;;;10.60;6.75;;;22.80;1.00;;;;;;6155401;23;20240;-93
2023/06/02 08:03:33;;;;;;;9.15;6.95;;;23.30;1.00;;;;;;6154918;23;20349;-87
2023/06/02 08:06:24;;;;;;;9.82;6.65;;;23.60;1.00;;;;;;6155920;23;20127;-92
2023/06/02 08:13:27;;;;;;;9.00;7.10;;;24.00;1.00;;;;;;6141080;23;20049;-88
2023/06/02 08:16:15;;;;;;;9.52;7.45;;;23.80;1.00;;;;;;6154842;23;20049;-90
2023/06/02 08:19:10;;;;;;;8.95;6.10;;;23.50;1.00;;;;;;6152913;23;20029;-89
2023/06/02 08:22:00;;;;;;;13.95;6.85;;;23.20;1.00;;;;;;6155082;23;20026;-88
2023/06/02 08:24:52;;;;;;;9.35;6.25;;;23.80;1.00;;;;;;6155347;23;20025;-90
2023/06/02 08:56:49;;;;;;;11.07;6.15;;;26.70;1.00;;;;;;5858213;24;20057;-92
2023/06/02 08:59:36;;;;;;;7.32;5.80;;;27.30;1.00;;;;;;5845314;24;20014;-92
2023/06/02 09:02:45;;;;;;;9.02;6.18;;;27.10;1.00;;;;;;5921350;24;20016;-92
2023/06/02 09:05:33;;;;;;;13.00;5.78;;;27.30;1.00;;;;;;5982090;24;20047;-88
2023/06/02 09:08:22;;;;;;;9.30;6.05;;;27.80;1.00;;;;;;5995732;23;20111;-88
2023/06/02 09:11:17;;;;;;;8.82;5.60;;;27.60;1.00;;;;;;6054561;23;20037;-91
2023/06/02 09:14:19;;;;;;;7.90;4.97;;;27.70;1.00;;;;;;6050106;23;20026;-88
2023/06/02 09:17:30;;;;;;;8.23;5.55;;;27.70;1.00;;;;;;6053829;23;20033;-89
2023/06/02 09:29:21;;;;;;;10.75;5.47;;;28.50;1.00;;;;;;6159590;23;20021;-93
2023/06/02 09:52:19;;;;;;;8.85;5.55;;;28.40;1.00;;;;;;6093887;23;20085;-91
2023/06/02 09:55:42;;;;;;;10.45;6.13;;;28.20;1.00;;;;;;6096050;23;20040;-88
2023/06/02 10:02:29;;;;;;;8.05;5.40;;;28.80;1.00;;;;;;6098726;23;20010;-91
2023/06/02 10:26:29;;;;;;;8.50;5.20;;;29.90;1.00;;;;;;6127733;23;20406;-93
2023/06/02 10:29:35;;;;;;;7.47;4.85;;;29.80;1.00;;;;;;6021888;23;20420;-90
2023/06/02 10:32:44;;;;;;;7.88;4.72;;;30.20;1.00;;;;;;6069236;23;20030;-93
2023/06/02 10:35:59;;;;;;;7.03;5.15;;;30.50;1.00;;;;;;6122140;23;20110;-87
2023/06/02 10:38:48;;;;;;;9.05;5.50;;;30.80;1.00;;;;;;6121510;23;20026;-87
2023/06/02 10:42:10;;;;;;;6.70;4.28;;;30.60;1.00;;;;;;6124759;23;20100;-87
2023/06/02 10:45:20;;;;;;;8.23;4.70;;;30.60;1.00;;;;;;6154538;23;20033;-85
2023/06/02 10:48:39;;;;;;;7.38;5.22;;;31.00;1.00;;;;;;6153090;23;20056;-90
2023/06/02 10:52:08;;;;;;;8.63;5.40;;;30.00;1.00;;;;;;6153842;23;20025;-86
2023/06/02 10:55:08;;;;;;;6.63;5.20;;;29.80;1.00;;;;;;6153284;23;20080;-85
2023/06/02 10:57:56;;;;;;;8.90;5.70;;;30.00;1.00;;;;;;6155004;23;20029;-89
2023/06/02 11:00:52;;;;;;;7.68;5.22;;;30.10;1.00;;;;;;6152812;23;20036;-89
2023/06/02 11:04:48;;;;;;;;;;;;;;;;;;;;;
2023/06/02 11:08:14;;;;;;;5.90;4.18;;;31.00;1.00;;;;;;6064309;23;20040;-91
2023/06/02 11:12:02;;;;;;;6.43;4.75;;;31.70;1.00;;;;;;6051481;23;20393;-93
2023/06/02 11:19:33;;;;;;;6.80;4.35;;;31.50;1.00;;;;;;6073508;23;20118;-89
2023/06/02 11:26:23;;;;;;;6.38;4.05;;;33.00;1.00;;;;;;6066176;23;20049;-90
2023/06/02 11:29:44;;;;;;;7.85;4.80;;;32.40;1.00;;;;;;6136731;23;20040;-91
2023/06/02 11:32:32;;;;;;;5.65;4.30;;;31.60;1.00;;;;;;6024073;23;20031;-89
2023/06/02 11:36:28;;;;;;;;;;;;;;;;;;;;;
2023/06/02 11:48:37;;;;;;;;;;;;;;;;;;;;;
2023/06/02 11:55:20;;;;;;;6.60;4.43;;;32.40;1.00;;;;;;5797798;24;20034;-83
2023/06/02 11:58:22;;;;;;;5.75;4.13;;;31.50;1.00;;;;;;5924692;24;20040;-87
2023/06/02 12:01:17;;;;;;;5.35;3.88;;;30.20;1.00;;;;;;6004264;23;20027;-88
2023/06/02 12:04:06;;;;;;;6.20;4.03;;;30.50;1.00;;;;;;6144584;23;20029;-87
2023/06/02 12:06:54;;;;;;;5.13;3.58;;;31.70;1.00;;;;;;6152693;23;20774;-85
2023/06/02 12:09:47;;;;;;;5.45;3.70;;;32.40;1.00;;;;;;6153201;23;20036;-87
2023/06/02 12:12:50;;;;;;;5.18;4.05;;;32.70;1.00;;;;;;6150258;23;20437;-88
2023/06/02 12:15:41;;;;;;;9.75;4.13;;;32.10;1.00;;;;;;6154763;23;20060;-89
2023/06/02 12:18:31;;;;;;;6.20;3.83;;;31.60;1.00;;;;;;6154309;23;20045;-89
2023/06/02 12:21:23;;;;;;;6.40;4.30;;;31.40;1.00;;;;;;6153951;23;20357;-89
2023/06/02 12:24:33;;;;;;;4.85;3.50;;;31.60;1.00;;;;;;6154807;23;20053;-87
2023/06/02 12:27:29;;;;;;;3.90;3.40;;;31.10;1.00;;;;;;6153079;23;20496;-85
2023/06/02 12:30:16;;;;;;;6.63;3.70;;;31.10;1.00;;;;;;6156496;23;20091;-86
2023/06/02 12:33:09;;;;;;;4.97;3.50;;;30.90;1.00;;;;;;6155444;23;20030;-89
2023/06/02 12:49:54;;;;;;;4.22;3.70;;;31.40;1.00;;;;;;6021342;23;20011;-92
2023/06/02 12:52:57;;;;;;;6.15;3.85;;;31.60;1.00;;;;;;5949246;23;20357;-89
2023/06/02 12:55:45;;;;;;;6.22;3.70;;;31.90;1.00;;;;;;6079836;23;20039;-89
2023/06/02 12:58:50;;;;;;;4.32;3.70;;;32.50;1.00;;;;;;6158584;23;20025;-93
2023/06/02 13:02:25;;;;;;;4.43;3.60;;;32.90;1.00;;;;;;6078835;23;20067;-92
2023/06/02 13:05:27;;;;;;;4.97;3.55;;;33.50;1.00;;;;;;6063733;23;20178;-90
2023/06/02 13:08:15;;;;;;;7.43;3.78;;;33.50;1.00;;;;;;6093974;23;20030;-89
2023/06/02 13:11:02;;;;;;;4.10;3.15;;;33.20;1.00;;;;;;6092612;23;20057;-88
2023/06/02 13:13:50;;;;;;;5.57;3.40;;;33.30;1.00;;;;;;6092379;23;20062;-89
2023/06/02 13:16:37;;;;;;;3.78;3.20;;;33.20;1.00;;;;;;6075698;23;20042;-88
2023/06/02 13:19:25;;;;;;;12.63;3.60;;;33.10;1.00;;;;;;6093791;23;20030;-87
2023/06/02 13:22:18;;;;;;;4.47;3.67;;;32.50;1.00;;;;;;6094347;23;20030;-87
2023/06/02 13:25:06;;;;;;;4.78;3.20;;;32.30;1.00;;;;;;6119040;23;20499;-88
2023/06/02 13:27:54;;;;;;;9.15;3.55;;;32.60;1.00;;;;;;6151873;23;20107;-91
2023/06/02 13:30:42;;;;;;;7.28;3.30;;;32.00;1.00;;;;;;6153755;23;20508;-91
2023/06/02 13:33:33;;;;;;;5.55;3.78;;;32.20;1.00;;;;;;6152950;23;20030;-91
2023/06/02 13:36:24;;;;;;;4.78;3.60;;;32.20;1.00;;;;;;6151976;23;20084;-90
2023/06/02 13:39:11;;;;;;;6.82;3.38;;;32.10;1.00;;;;;;6159058;23;20114;-89
2023/06/02 13:41:58;;;;;;;7.40;3.45;;;31.90;1.00;;;;;;6157333;23;20093;-87
2023/06/02 13:44:50;;;;;;;5.47;3.65;;;32.50;1.00;;;;;;6156080;23;20036;-90
2023/06/02 13:47:37;;;;;;;4.60;3.65;;;32.60;1.00;;;;;;6150859;23;20439;-89
2023/06/02 13:50:35;;;;;;;6.85;3.47;;;32.60;1.00;;;;;;6154926;23;20088;-92
2023/06/02 13:53:22;;;;;;;7.30;3.55;;;32.30;1.00;;;;;;6135381;23;20025;-91
2023/06/02 13:56:10;;;;;;;6.25;3.67;;;31.70;1.00;;;;;;6154955;23;20314;-88
2023/06/02 13:58:57;;;;;;;5.70;3.42;;;31.40;1.00;;;;;;6159411;23;20030;-90
2023/06/02 14:01:47;;;;;;;5.20;3.42;;;31.40;1.00;;;;;;6165454;23;20025;-89
2023/06/02 14:04:36;;;;;;;4.00;3.50;;;31.40;1.00;;;;;;6167980;23;20018;-89
2023/06/02 14:07:24;;;;;;;7.13;3.13;;;30.50;1.00;;;;;;6166795;23;20037;-88
2023/06/02 14:10:11;;;;;;;5.07;3.70;;;30.80;1.00;;;;;;6163827;23;20087;-90
2023/06/02 14:12:59;;;;;;;5.57;3.75;;;30.90;1.00;;;;;;6163672;23;20096;-89
2023/06/02 14:15:46;;;;;;;3.75;3.00;;;31.20;1.00;;;;;;6164557;23;20029;-89
2023/06/02 14:18:35;;;;;;;5.45;3.20;;;31.50;1.00;;;;;;6161396;23;20118;-88
2023/06/02 14:24:56;;;;;;;5.85;3.30;;;30.90;1.00;;;;;;6159198;23;20041;-90
2023/06/02 14:27:47;;;;;;;6.05;3.78;;;30.30;1.00;;;;;;6164566;23;20036;-87
2023/06/02 14:30:37;;;;;;;5.78;3.97;;;30.70;1.00;;;;;;6163695;23;20026;-88
2023/06/02 14:34:03;;;;;;;4.85;3.30;;;31.00;1.00;;;;;;6161369;23;20061;-90
2023/06/02 14:36:59;;;;;;;6.38;3.67;;;31.10;1.00;;;;;;6169010;23;20077;-90
2023/06/02 14:39:58;;;;;;;7.60;3.20;;;29.60;1.00;;;;;;6170311;23;20030;-93
2023/06/02 14:42:45;;;;;;;5.75;3.63;;;29.00;1.00;;;;;;6164574;23;20052;-90
2023/06/02 14:45:36;;;;;;;7.82;3.70;;;29.30;1.00;;;;;;6155480;23;20060;-95
2023/06/02 14:48:40;;;;;;;8.25;3.78;;;29.50;1.00;;;;;;6155948;23;20036;-93
2023/06/02 14:51:49;;;;;;;6.03;3.40;;;29.30;1.00;;;;;;6154294;23;20025;-91
2023/06/02 14:54:57;;;;;;;4.88;3.47;;;29.90;1.00;;;;;;6155573;23;20022;-91
2023/06/02 14:57:45;;;;;;;6.60;3.60;;;29.90;1.00;;;;;;6153417;23;20029;-86
2023/06/02 15:00:32;;;;;;;3.97;3.10;;;29.40;1.00;;;;;;6153483;23;20167;-90
2023/06/02 15:03:19;;;;;;;8.02;3.58;;;29.30;1.00;;;;;;6153074;23;20028;-91
2023/06/02 15:06:08;;;;;;;10.13;3.95;;;28.70;1.00;;;;;;6151883;23;20043;-89
2023/06/02 15:08:57;;;;;;;6.47;3.78;;;29.10;1.00;;;;;;6149976;23;20073;-88
2023/06/02 15:11:44;;;;;;;5.63;3.67;;;29.30;1.00;;;;;;6152058;23;20442;-91
2023/06/02 15:14:41;;;;;;;6.60;3.10;;;29.00;1.00;;;;;;6154558;23;20033;-91
2023/06/02 15:26:36;;;;;;;10.63;4.07;;;29.50;1.00;;;;;;6157963;23;20035;-91
2023/06/02 15:29:45;;;;;;;5.72;3.60;;;29.00;1.00;;;;;;6154021;23;20029;-89
2023/06/02 15:32:59;;;;;;;6.00;3.47;;;28.90;1.00;;;;;;6155983;23;20025;-93
2023/06/02 15:36:17;;;;;;;4.97;3.13;;;28.50;1.00;;;;;;6159540;23;20032;-93
2023/06/02 15:39:22;;;;;;;6.57;3.58;;;28.90;1.00;;;;;;6157940;23;20429;-90
2023/06/02 15:42:11;;;;;;;6.10;3.75;;;28.40;1.00;;;;;;6159362;23;20111;-88
2023/06/02 15:44:59;;;;;;;9.10;4.03;;;28.10;1.00;;;;;;6159848;23;20025;-88
2023/06/02 15:48:20;;;;;;;7.90;3.78;;;28.20;1.00;;;;;;6157259;23;20026;-91
2023/06/02 15:51:07;;;;;;;7.82;3.47;;;27.90;1.00;;;;;;6153741;23;20140;-87
2023/06/02 15:53:55;;;;;;;6.28;3.72;;;27.90;1.00;;;;;;6156056;23;20030;-89
2023/06/02 15:56:43;;;;;;;5.10;3.60;;;27.80;1.00;;;;;;6155783;23;20040;-89
2023/06/02 15:59:30;;;;;;;9.63;3.92;;;27.80;1.00;;;;;;6154564;23;20025;-88
2023/06/02 16:02:20;;;;;;;5.72;3.92;;;27.10;1.00;;;;;;6155051;23;20417;-90
2023/06/02 16:05:08;;;;;;;9.30;3.47;;;26.70;1.00;;;;;;6156185;23;20337;-86
2023/06/02 16:07:55;;;;;;;7.22;4.00;;;26.30;1.00;;;;;;6155936;23;20402;-89
2023/06/02 16:10:42;;;;;;;5.03;4.00;;;26.20;1.00;;;;;;6155570;23;20348;-86
2023/06/02 16:13:36;;;;;;;8.60;4.22;;;26.00;1.00;;;;;;6158175;23;20030;-85
2023/06/02 16:16:28;;;;;;;6.22;4.13;;;25.60;1.00;;;;;;6158854;23;20030;-89
2023/06/02 16:19:17;;;;;;;5.85;3.70;;;25.20;1.00;;;;;;6163174;23;20057;-88
2023/06/02 16:22:04;;;;;;;5.05;3.70;;;25.00;1.00;;;;;;6157911;23;20032;-92
2023/06/02 16:24:52;;;;;;;7.30;4.18;;;25.00;1.00;;;;;;6157873;23;20036;-88
2023/06/02 16:27:41;;;;;;;4.88;3.35;;;24.80;1.00;;;;;;6156733;23;20352;-86
2023/06/02 16:30:29;;;;;;;9.32;4.03;;;24.30;1.00;;;;;;6157374;23;20041;-87
2023/06/02 16:33:16;;;;;;;5.82;3.90;;;23.80;1.00;;;;;;6158658;23;20117;-87
2023/06/02 16:36:04;;;;;;;7.25;4.25;;;23.50;1.00;;;;;;6165692;23;20367;-87
2023/06/02 16:38:52;;;;;;;8.23;4.13;;;23.30;1.00;;;;;;6155907;23;20546;-86
2023/06/02 16:41:40;;;;;;;6.43;4.07;;;23.00;1.00;;;;;;6155039;23;20022;-88
2023/06/02 16:44:28;;;;;;;12.52;5.15;;;22.80;1.00;;;;;;6155596;23;20025;-87
2023/06/02 16:47:18;;;;;;;6.63;4.07;;;22.30;1.00;;;;;;6156294;23;20029;-89
2023/06/02 16:50:06;;;;;;;12.43;4.20;;;22.10;1.00;;;;;;6161276;23;20657;-87
2023/06/02 16:52:53;;;;;;;7.72;4.38;;;21.90;1.00;;;;;;6158987;23;20040;-88
2023/06/02 16:55:40;;;;;;;7.53;3.95;;;21.70;1.00;;;;;;6158004;23;20337;-89
2023/06/02 16:58:28;;;;;;;4.85;4.07;;;21.60;1.00;;;;;;6157042;23;20030;-88
2023/06/02 17:01:15;;;;;;;6.93;3.90;;;21.50;1.00;;;;;;6157564;23;20025;-90
2023/06/02 17:04:03;;;;;;;8.57;4.13;;;21.30;1.00;;;;;;6161193;23;20025;-88
2023/06/02 17:06:53;;;;;;;11.13;4.55;;;21.20;1.00;;;;;;6154742;23;20428;-88
2023/06/02 17:09:42;;;;;;;6.22;4.20;;;21.10;1.00;;;;;;6155732;23;20029;-88
2023/06/02 17:12:29;;;;;;;8.90;4.60;;;21.10;1.00;;;;;;6155882;23;20313;-89
2023/06/02 17:15:17;;;;;;;8.70;4.53;;;21.00;1.00;;;;;;6155705;23;20026;-88
2023/06/02 17:18:04;;;;;;;6.90;4.40;;;20.90;1.00;;;;;;6155444;23;20153;-87
2023/06/02 17:20:53;;;;;;;7.13;5.00;;;20.80;1.00;;;;;;6155351;23;20088;-87
2023/06/02 17:23:41;;;;;;;10.43;5.35;;;20.80;1.00;;;;;;6154846;23;20030;-89
2023/06/02 17:26:32;;;;;;;7.78;4.88;;;20.70;1.00;;;;;;6156387;23;20440;-85
2023/06/02 17:29:19;;;;;;;6.72;3.60;;;20.60;1.00;;;;;;6154813;23;20021;-84
2023/06/02 17:32:13;;;;;;;7.78;4.10;;;20.50;1.00;;;;;;6156791;23;20036;-89
2023/06/02 17:35:03;;;;;;;8.48;3.70;;;20.50;1.00;;;;;;6158544;23;20100;-87
2023/06/02 17:37:51;;;;;;;6.78;4.38;;;20.40;1.00;;;;;;6154198;23;20136;-87
2023/06/02 17:40:41;;;;;;;7.10;4.22;;;20.30;1.00;;;;;;6155024;23;20031;-85
2023/06/02 17:43:28;;;;;;;7.60;3.97;;;20.20;1.00;;;;;;6155139;23;20029;-87
2023/06/02 17:46:17;;;;;;;6.25;4.15;;;20.10;1.00;;;;;;6154152;23;20021;-91
2023/06/02 17:49:04;;;;;;;9.60;4.90;;;20.10;1.00;;;;;;6154504;23;20119;-90
2023/06/02 17:51:54;;;;;;;6.40;4.25;;;20.10;1.00;;;;;;6155611;23;20036;-91